Attleboro, Massachusetts
Current Conditions -  °F | °C
As of 1:15 PM on Wednesday 28 Jan 2015 (Local Time) from KSFZ Reporting Station
Clear Clear  
Wind Chill:   Ceiling: Unl
Heat Index: 19°   Visibility: 10mi
Dew Point:   Wind: 10mph
Humidity: 49%   Direction: 340°NNW
Pressure: 29.94"   Gusts: NA
Location:  41.95°N, 71.28°W
Report Text: KSFZ 281815Z 34009KT 10SM CLR M07/M16 A2994 RMK AO1
Loading
Personal Weather Stations






























Interactive Weather Map New forecast layout! Learn more

10-Day Weather Forecast

Advertisements
Track Severe Weather on mobile